Jump to content


DELTA AIRLINES FLIGHT DL686 FLOWN ON 03-06-2018 BY CAPTAIN DEREK ROGY

Pilot StatsCaptain Derek Rogy (LDP86) • 1,600.5 total hours • 835 total flights [View Logbook]
FLIGHT DETAILS
StatusReceived and approved on 2018-03-06 at 16:03:10
Origin AirportHartsfield - Jackson Atlanta I (KATL) • Atlanta, Georgia, United States (1,026 feet MSL)
Filed Flight PlanFLIGHT PLANNER OFFLINE
Destination AirportJose F. Pena Gomez Intl (MDSD) • Santo Domingo, Dominican Republic (58 feet MSL)
Alternate AirportNone Filed
AirlineDelta Airlines
AircraftBoeing 757-200 | Winglets (75W / B757-200)
FS Aircraft UsedCS 757-26D Delta Air Lines 2018
Cruising AltitudeFL360
Distance Flown1,208 nautical miles
Passengers Onboard85 passengers (45.70% full)
DEPARTURE DETAILS
Time Out09:47:07
Taxi Data172,482 lbs total with 40,757 lbs of fuel onboard
Takeoff Data10:16:15 (29 minutes after leaving gate/ramp) • 171,029 lbs total • 7° pitch at 152 knots
Departure METARKATL 061759Z 31013KT 2SM R09R/5000VP6000FT RA BR SCT005 BKN012 OVC027 13/13 A2980 RMK AO2 SFC VIS 3 P0003 T01330133
ARRIVAL DETAILS
Landing Data14:02:22 • 149,950 lbs total • 5° pitch doing 114 knots at a rate of -242.22 feet/minute with 17,777 lbs of fuel onboard
Time In14:07:19 (5 minutes after landing)
Ramp Weight149,503 lbs total
Total Fuel Used22,980 lbs
Total Block Time03:20:08 (3.3 hours) while 34 minutes were spent on the ground
Arrival METARMDSD 062100Z 13005KT 9999 BKN020 27/19 Q1014
MISCELLANEOUS DETAILS
LiveDISPATCH Version4.8.3.1
FS Version
FSUIPC Version5.12
OS VersionWindows 7 32-bit
Screen Resolution1920 x 1200
Pilot's CommentsNo Comments Reported
FLIGHT MAP